createdAt,value
2022-09-30T04:30:48.076Z,96.52
2022-09-30T04:31:48.103Z,96.42
2022-09-30T04:32:48.025Z,96.73
2022-09-30T04:33:48.008Z,96.31
2022-09-30T04:34:47.991Z,96.94
2022-09-30T04:35:48.019Z,96.94
2022-09-30T04:36:47.984Z,97.14
2022-09-30T04:37:47.962Z,97.14
2022-09-30T04:38:47.957Z,97.04
2022-09-30T04:39:47.937Z,96.73
2022-09-30T04:40:47.949Z,96.62
2022-09-30T04:41:47.916Z,96.94
2022-09-30T04:42:47.910Z,96.94
2022-09-30T04:43:47.929Z,96.73
2022-09-30T04:44:47.884Z,97.25
2022-09-30T04:45:47.948Z,96.83
2022-09-30T04:46:47.877Z,96.94
2022-09-30T04:47:47.850Z,97.04
2022-09-30T04:48:47.853Z,97.25
2022-09-30T04:49:47.844Z,96.77
2022-09-30T04:50:47.824Z,97.14
2022-09-30T04:51:47.811Z,96.62
2022-09-30T04:52:47.828Z,96.62
2022-09-30T04:53:47.802Z,96.94
2022-09-30T04:54:47.785Z,96.83
2022-09-30T04:55:47.763Z,96.88
2022-09-30T04:56:47.774Z,96.94
2022-09-30T04:57:47.746Z,97.14
2022-09-30T04:58:47.740Z,96.73
2022-09-30T04:59:47.760Z,97.14
2022-09-30T05:00:47.772Z,96.83
2022-09-30T05:01:47.769Z,96.88
2022-09-30T05:02:47.711Z,96.98
2022-09-30T05:03:47.682Z,97.08
2022-09-30T05:04:47.668Z,96.77
2022-09-30T05:05:47.676Z,97.08
2022-09-30T05:06:47.675Z,97.60
2022-09-30T05:07:47.637Z,97.39
2022-09-30T05:08:47.624Z,97.71
2022-09-30T05:09:47.689Z,98.11
2022-09-30T05:10:47.601Z,98.27
2022-09-30T05:11:47.604Z,97.96
2022-09-30T05:12:47.602Z,98.43
2022-09-30T05:13:47.635Z,98.68
2022-09-30T05:14:47.563Z,98.63
2022-09-30T05:15:47.643Z,98.84
2022-09-30T05:16:47.544Z,98.63
2022-09-30T05:17:47.542Z,98.68
2022-09-30T05:18:47.582Z,98.78
2022-09-30T05:19:47.518Z,99.09
2022-09-30T05:20:47.495Z,98.88
2022-09-30T05:21:47.488Z,99.19
2022-09-30T05:22:47.476Z,98.99
2022-09-30T05:23:47.475Z,98.78
2022-09-30T05:24:47.491Z,99.61
2022-09-30T05:25:47.455Z,99.40
2022-09-30T05:26:47.429Z,99.61
2022-09-30T05:27:47.421Z,99.40
2022-09-30T05:28:47.411Z,99.40
2022-09-30T05:29:47.417Z,99.61
2022-09-30T05:30:47.391Z,99.61
2022-09-30T05:31:47.518Z,99.71
2022-09-30T05:32:47.374Z,99.71
2022-09-30T05:33:47.366Z,99.71
2022-09-30T05:34:47.378Z,99.61
2022-09-30T05:35:47.340Z,99.30
2022-09-30T05:36:47.322Z,99.51
2022-09-30T05:37:47.322Z,99.92
2022-09-30T05:38:47.300Z,99.76
2022-09-30T05:39:47.322Z,99.40
2022-09-30T05:40:47.279Z,99.92
2022-09-30T05:41:47.285Z,99.61
2022-09-30T05:42:47.267Z,99.92
2022-09-30T05:43:47.263Z,99.99
2022-09-30T05:44:47.232Z,99.40
2022-09-30T05:45:47.236Z,99.56
2022-09-30T05:46:47.297Z,99.77
2022-09-30T05:47:47.202Z,99.92
2022-09-30T05:48:47.221Z,99.82
2022-09-30T05:49:47.184Z,99.40
2022-09-30T05:50:47.188Z,99.40
2022-09-30T05:51:47.176Z,99.40
2022-09-30T05:52:47.149Z,99.82
2022-09-30T05:53:47.161Z,99.51
2022-09-30T05:54:47.133Z,99.99
2022-09-30T05:55:47.119Z,99.82
2022-09-30T05:56:47.109Z,99.30
2022-09-30T05:57:47.106Z,99.71
2022-09-30T05:58:47.091Z,99.99
2022-09-30T05:59:47.091Z,99.99
2022-09-30T06:00:47.065Z,99.99
2022-09-30T06:01:47.183Z,99.99
2022-09-30T06:02:47.195Z,99.99
2022-09-30T06:03:47.055Z,99.99
2022-09-30T06:04:47.024Z,99.99
2022-09-30T06:05:47.031Z,99.99
2022-09-30T06:06:47.024Z,99.99
2022-09-30T06:07:46.991Z,99.99
2022-09-30T06:08:46.975Z,99.99
2022-09-30T06:09:47.029Z,99.99
2022-09-30T06:10:46.961Z,99.99
2022-09-30T06:11:46.969Z,99.99
2022-09-30T06:12:46.938Z,99.99
2022-09-30T06:13:46.926Z,99.99
2022-09-30T06:14:46.917Z,99.99
2022-09-30T06:15:46.901Z,99.99
2022-09-30T06:16:46.962Z,99.99
2022-09-30T06:17:46.885Z,99.99
2022-09-30T06:18:46.875Z,99.99
2022-09-30T06:19:46.866Z,99.99
2022-09-30T06:20:46.874Z,99.99
2022-09-30T06:21:46.841Z,99.99
2022-09-30T06:22:46.966Z,99.99
2022-09-30T06:23:46.826Z,99.99
2022-09-30T06:24:49.434Z,99.99
2022-09-30T06:25:46.818Z,99.99
2022-09-30T06:26:46.781Z,99.99
2022-09-30T06:27:46.780Z,99.99
2022-09-30T06:28:46.773Z,99.99
2022-09-30T06:29:46.759Z,99.99
2022-09-30T06:30:46.760Z,99.99
2022-09-30T06:31:46.793Z,99.99
2022-09-30T06:32:46.722Z,99.99
2022-09-30T06:33:46.720Z,99.99
2022-09-30T06:34:46.714Z,99.99
2022-09-30T06:35:46.707Z,99.99
2022-09-30T06:36:46.677Z,99.99
2022-09-30T06:37:46.661Z,99.99
2022-09-30T06:38:46.726Z,99.99
2022-09-30T06:39:46.642Z,99.99
2022-09-30T06:40:46.654Z,99.99
2022-09-30T06:41:46.635Z,99.99
2022-09-30T06:42:46.616Z,99.99
2022-09-30T06:43:46.618Z,99.99
2022-09-30T06:44:52.655Z,99.99
2022-09-30T06:45:47.668Z,99.99
2022-09-30T06:46:53.587Z,99.99
2022-09-30T06:47:58.225Z,99.99
2022-09-30T06:48:47.547Z,99.99
2022-09-30T06:49:49.838Z,99.99
2022-09-30T06:50:57.171Z,99.99
2022-09-30T06:51:47.519Z,99.99
2022-09-30T06:52:46.513Z,99.99
2022-09-30T06:53:49.003Z,99.99
2022-09-30T06:54:46.500Z,99.99
2022-09-30T06:55:46.489Z,99.99
2022-09-30T06:56:46.489Z,99.99
2022-09-30T06:57:46.458Z,99.99
2022-09-30T06:58:46.469Z,99.99
2022-09-30T06:59:46.445Z,99.99
2022-09-30T07:00:46.479Z,99.99
2022-09-30T07:01:46.527Z,99.99
2022-09-30T07:02:46.399Z,99.99
2022-09-30T07:03:46.385Z,99.99
2022-09-30T07:04:46.375Z,99.99
2022-09-30T07:05:46.404Z,99.99
2022-09-30T07:06:46.366Z,99.99
2022-09-30T07:07:46.348Z,99.99
2022-09-30T07:08:46.351Z,99.99
2022-09-30T07:09:46.400Z,99.99
2022-09-30T07:10:46.325Z,99.99
2022-09-30T07:11:46.319Z,99.99
2022-09-30T07:12:46.307Z,99.99
2022-09-30T07:13:46.286Z,99.99
2022-09-30T07:14:46.271Z,99.99
2022-09-30T07:15:46.268Z,99.99
2022-09-30T07:16:46.269Z,99.99
2022-09-30T07:17:46.252Z,99.99
2022-09-30T07:18:46.244Z,99.99
2022-09-30T07:19:46.214Z,99.99
2022-09-30T07:20:46.216Z,99.99
2022-09-30T07:21:46.202Z,99.99
2022-09-30T07:22:46.189Z,99.99
2022-09-30T07:23:46.197Z,99.99
2022-09-30T07:24:46.169Z,99.99
2022-09-30T07:25:46.174Z,99.99
2022-09-30T07:26:46.184Z,99.99
2022-09-30T07:27:46.147Z,99.99
2022-09-30T07:28:46.126Z,99.99
2022-09-30T07:30:07.766Z,99.99
2022-09-30T07:30:47.104Z,99.99
2022-09-30T07:31:46.117Z,99.99
2022-09-30T07:32:46.085Z,99.99
2022-09-30T07:33:46.067Z,99.99
2022-09-30T07:34:46.109Z,99.99
2022-09-30T07:35:46.062Z,99.99
2022-09-30T07:36:46.042Z,99.99
2022-09-30T07:37:46.036Z,99.99
2022-09-30T07:38:46.015Z,99.99
2022-09-30T07:39:46.032Z,99.99
2022-09-30T07:40:45.992Z,99.99
2022-09-30T07:41:46.018Z,99.99
2022-09-30T07:42:46.307Z,99.99
2022-09-30T07:43:45.964Z,99.99
2022-09-30T07:44:45.969Z,99.99
2022-09-30T07:45:46.036Z,99.99
2022-09-30T07:46:45.932Z,99.99
2022-09-30T07:47:48.559Z,99.99
2022-09-30T07:48:46.969Z,99.99
2022-09-30T07:49:45.895Z,99.99
2022-09-30T07:50:45.906Z,99.99
2022-09-30T07:51:45.954Z,99.99
2022-09-30T07:52:45.861Z,99.95
2022-09-30T07:53:45.852Z,99.99
2022-09-30T07:54:50.455Z,99.99
2022-09-30T07:55:45.838Z,99.99
2022-09-30T07:57:46.832Z,99.99
2022-09-30T07:58:45.825Z,99.99
2022-09-30T07:59:45.799Z,99.99
2022-09-30T08:00:45.779Z,99.99
2022-09-30T08:01:45.771Z,99.99
2022-09-30T08:02:45.847Z,99.99
2022-09-30T08:03:45.763Z,99.99
2022-09-30T08:04:45.765Z,99.30
2022-09-30T08:05:45.727Z,99.25
2022-09-30T08:06:45.717Z,99.25
2022-09-30T08:07:45.709Z,98.49
2022-09-30T08:08:45.735Z,97.72
2022-09-30T08:09:45.810Z,97.82
2022-09-30T08:10:45.677Z,97.72
2022-09-30T08:11:45.664Z,97.16
2022-09-30T08:12:45.644Z,96.95
2022-09-30T08:13:45.642Z,96.75
2022-09-30T08:14:45.696Z,96.50
2022-09-30T08:15:45.622Z,96.23
2022-09-30T08:16:45.668Z,95.72
2022-09-30T08:17:45.599Z,96.19
2022-09-30T08:18:45.608Z,95.57
2022-09-30T08:19:45.578Z,95.39
2022-09-30T08:20:45.561Z,95.34
2022-09-30T08:21:45.593Z,94.68
2022-09-30T08:22:45.566Z,93.35
2022-09-30T08:23:45.532Z,93.45
2022-09-30T08:24:45.548Z,92.88
2022-09-30T08:25:45.509Z,91.86
2022-09-30T08:26:45.560Z,92.88
2022-09-30T08:27:45.492Z,92.51
2022-09-30T08:28:45.476Z,92.72
2022-09-30T08:30:46.491Z,92.72
2022-09-30T08:31:45.513Z,93.33
2022-09-30T08:32:45.430Z,93.99
2022-09-30T08:33:45.433Z,94.20
2022-09-30T08:34:45.429Z,93.89
2022-09-30T08:35:45.405Z,93.95
2022-09-30T08:36:45.393Z,93.33
2022-09-30T08:37:45.415Z,93.85
2022-09-30T08:38:45.370Z,93.60
2022-09-30T08:39:45.365Z,93.60
2022-09-30T08:40:45.349Z,93.96
2022-09-30T08:41:45.373Z,94.37
2022-09-30T08:42:51.495Z,94.07
2022-09-30T08:43:45.336Z,93.76
2022-09-30T08:44:45.325Z,94.02
2022-09-30T08:45:45.353Z,92.49
2022-09-30T08:46:45.326Z,92.79
2022-09-30T08:47:45.294Z,92.44
2022-09-30T08:48:45.267Z,91.01
2022-09-30T08:49:45.303Z,91.93
2022-09-30T08:50:45.252Z,91.78
2022-09-30T08:51:45.231Z,91.54
2022-09-30T08:52:48.998Z,90.82
2022-09-30T08:53:45.223Z,89.59
2022-09-30T08:54:45.214Z,89.39
2022-09-30T08:55:45.221Z,89.35
2022-09-30T08:56:45.174Z,89.25
2022-09-30T08:57:47.605Z,89.25
2022-09-30T08:58:45.170Z,88.78
2022-09-30T08:59:45.147Z,89.31
2022-09-30T09:00:45.174Z,89.00
2022-09-30T09:01:45.194Z,88.49
2022-09-30T09:02:45.232Z,87.73
2022-09-30T09:03:45.106Z,87.12
2022-09-30T09:04:45.127Z,87.79
2022-09-30T09:05:48.569Z,86.16
2022-09-30T09:06:46.149Z,86.06
2022-09-30T09:07:45.073Z,87.35
2022-09-30T09:08:45.070Z,87.35
2022-09-30T09:09:45.042Z,86.59
2022-09-30T09:10:45.049Z,84.96
2022-09-30T09:11:45.013Z,84.55
2022-09-30T09:12:45.022Z,84.66
2022-09-30T09:13:44.991Z,84.55
2022-09-30T09:14:44.978Z,84.25
2022-09-30T09:15:45.012Z,84.66
2022-09-30T09:16:45.032Z,84.66
2022-09-30T09:18:04.261Z,85.16
2022-09-30T09:18:45.954Z,86.00
2022-09-30T09:19:44.938Z,84.67
2022-09-30T09:20:44.919Z,85.39
2022-09-30T09:21:44.912Z,85.14
2022-09-30T09:22:44.916Z,83.42
2022-09-30T09:23:44.880Z,83.98
2022-09-30T09:24:44.940Z,82.52
2022-09-30T09:25:44.864Z,83.03
2022-09-30T09:26:44.845Z,82.79
2022-09-30T09:27:44.955Z,82.28
2022-09-30T09:28:44.855Z,82.07
2022-09-30T09:29:44.849Z,82.59
2022-09-30T09:30:44.841Z,81.84
2022-09-30T09:31:44.859Z,81.90
2022-09-30T09:32:44.789Z,80.58
2022-09-30T09:33:44.787Z,81.59
2022-09-30T09:34:44.809Z,80.13
2022-09-30T09:35:44.754Z,80.54
2022-09-30T09:36:44.762Z,80.64
2022-09-30T09:37:44.749Z,79.86
2022-09-30T09:38:44.766Z,81.05
2022-09-30T09:39:44.711Z,79.32
2022-09-30T09:40:44.700Z,80.44
2022-09-30T09:41:44.694Z,79.59
2022-09-30T09:42:44.695Z,78.98
2022-09-30T09:43:44.789Z,79.63
2022-09-30T09:44:44.664Z,79.72
2022-09-30T09:45:44.712Z,80.80
2022-09-30T09:46:44.656Z,79.75
2022-09-30T09:47:44.635Z,79.55
2022-09-30T09:48:44.640Z,79.35
2022-09-30T09:49:45.136Z,78.74
2022-09-30T09:50:44.617Z,79.11
2022-09-30T09:51:44.638Z,78.70
2022-09-30T09:52:44.572Z,79.98
2022-09-30T09:53:44.556Z,76.74
2022-09-30T09:54:44.543Z,76.94
2022-09-30T09:55:44.554Z,76.64
2022-09-30T09:56:44.526Z,77.25
2022-09-30T09:57:44.516Z,76.84
2022-09-30T09:58:44.555Z,76.64
2022-09-30T09:59:44.487Z,76.64
2022-09-30T10:00:44.611Z,77.21
2022-09-30T10:01:44.568Z,77.11
2022-09-30T10:02:44.462Z,78.79
2022-09-30T10:03:44.449Z,76.93
2022-09-30T10:04:44.513Z,77.10
2022-09-30T10:05:44.421Z,74.87
2022-09-30T10:06:44.442Z,74.71
2022-09-30T10:07:44.413Z,75.01
2022-09-30T10:08:44.397Z,75.11
2022-09-30T10:09:44.394Z,76.83
2022-09-30T10:10:44.394Z,74.30
2022-09-30T10:11:44.358Z,75.31
2022-09-30T10:12:44.354Z,74.98
2022-09-30T10:13:44.340Z,73.25
2022-09-30T10:14:44.331Z,74.23
2022-09-30T10:15:44.412Z,73.22
2022-09-30T10:16:44.308Z,73.43
2022-09-30T10:17:44.320Z,72.92
2022-09-30T10:18:44.287Z,72.34
2022-09-30T10:19:44.292Z,72.75
2022-09-30T10:20:44.335Z,74.07
2022-09-30T10:21:44.248Z,72.65
2022-09-30T10:22:44.270Z,72.88
2022-09-30T10:23:44.247Z,73.49
2022-09-30T10:24:44.254Z,73.96
2022-09-30T10:25:44.209Z,73.46
2022-09-30T10:26:47.744Z,73.56
2022-09-30T10:27:44.265Z,72.61
2022-09-30T10:28:44.174Z,73.22
2022-09-30T10:29:44.164Z,74.19
2022-09-30T10:30:44.167Z,72.58
2022-09-30T10:31:44.242Z,72.44
2022-09-30T10:32:44.130Z,72.64
2022-09-30T10:33:44.137Z,72.71
2022-09-30T10:34:44.132Z,71.40
2022-09-30T10:35:44.110Z,71.00
2022-09-30T10:36:44.087Z,73.08
2022-09-30T10:37:46.554Z,69.28
2022-09-30T10:38:45.091Z,71.37
2022-09-30T10:39:44.054Z,68.54
2022-09-30T10:40:44.061Z,68.13
2022-09-30T10:41:44.039Z,66.89
2022-09-30T10:42:44.019Z,68.21
2022-09-30T10:43:44.035Z,66.62
2022-09-30T10:44:44.004Z,67.23
2022-09-30T10:45:49.391Z,67.50
2022-09-30T10:46:45.127Z,66.49
2022-09-30T10:47:43.997Z,66.49
2022-09-30T10:48:43.958Z,67.67
2022-09-30T10:49:43.976Z,66.76
2022-09-30T10:50:43.944Z,65.62
2022-09-30T10:51:43.929Z,66.63
2022-09-30T10:52:43.914Z,65.62
2022-09-30T10:53:43.926Z,65.75
2022-09-30T10:54:44.078Z,66.66
2022-09-30T10:55:43.896Z,66.76
2022-09-30T10:56:43.873Z,66.05
2022-09-30T10:57:43.853Z,66.96
2022-09-30T10:58:43.956Z,66.13
2022-09-30T10:59:43.836Z,66.05
2022-09-30T11:00:43.901Z,65.42
2022-09-30T11:01:43.891Z,65.75
2022-09-30T11:02:43.856Z,65.65
2022-09-30T11:03:43.854Z,65.55
2022-09-30T11:04:43.786Z,65.35
2022-09-30T11:05:43.784Z,65.75
2022-09-30T11:06:43.783Z,65.95
2022-09-30T11:07:43.756Z,65.75
2022-09-30T11:08:43.739Z,65.45
2022-09-30T11:09:44.119Z,67.13
2022-09-30T11:10:43.859Z,66.02
2022-09-30T11:11:43.709Z,64.51
2022-09-30T11:12:43.713Z,66.53
2022-09-30T11:13:43.682Z,66.60
2022-09-30T11:14:43.693Z,65.49
2022-09-30T11:15:43.701Z,64.25
2022-09-30T11:16:43.768Z,62.66
2022-09-30T11:17:43.665Z,61.29
2022-09-30T11:18:43.633Z,59.80
2022-09-30T11:19:43.653Z,63.03
2022-09-30T11:20:43.615Z,62.02
2022-09-30T11:21:43.604Z,62.29
2022-09-30T11:22:43.595Z,59.77
2022-09-30T11:23:43.590Z,61.16
2022-09-30T11:24:43.569Z,60.52
2022-09-30T11:25:43.558Z,59.04
2022-09-30T11:26:43.563Z,60.32
2022-09-30T11:27:43.553Z,59.62
2022-09-30T11:28:43.532Z,61.60
2022-09-30T11:29:43.526Z,61.03
2022-09-30T11:30:43.503Z,62.13
2022-09-30T11:31:43.563Z,62.13
2022-09-30T11:32:43.504Z,63.14
2022-09-30T11:33:43.474Z,62.34
2022-09-30T11:34:43.495Z,64.07
2022-09-30T11:35:43.450Z,62.94
2022-09-30T11:36:43.447Z,62.74
2022-09-30T11:37:43.429Z,63.24
2022-09-30T11:38:43.462Z,61.23
2022-09-30T11:39:43.408Z,61.86
2022-09-30T11:40:43.395Z,62.13
2022-09-30T11:41:43.384Z,62.06
2022-09-30T11:42:43.391Z,61.96
2022-09-30T11:43:43.385Z,61.86
2022-09-30T11:44:43.376Z,63.30
2022-09-30T11:45:43.389Z,62.29
2022-09-30T11:46:43.365Z,61.96
2022-09-30T11:47:43.328Z,63.47
2022-09-30T11:48:43.334Z,63.70
2022-09-30T11:49:43.301Z,62.49
2022-09-30T11:50:43.312Z,61.89
2022-09-30T11:51:43.288Z,62.12
2022-09-30T11:52:43.274Z,62.76
2022-09-30T11:53:43.373Z,63.16
2022-09-30T11:54:43.262Z,64.81
2022-09-30T11:55:43.238Z,63.70
2022-09-30T11:56:43.249Z,64.47
2022-09-30T11:57:43.231Z,64.30
2022-09-30T11:58:43.217Z,63.87
2022-09-30T11:59:43.196Z,64.90
2022-09-30T12:00:47.107Z,63.49
2022-09-30T12:01:43.244Z,62.92
2022-09-30T12:02:43.189Z,62.92
2022-09-30T12:03:43.162Z,63.42
2022-09-30T12:04:43.136Z,62.41
2022-09-30T12:05:43.151Z,62.79
2022-09-30T12:06:43.142Z,64.70
2022-09-30T12:07:43.125Z,63.96
2022-09-30T12:08:43.094Z,63.79
2022-09-30T12:09:43.083Z,63.79
2022-09-30T12:10:43.076Z,65.24
2022-09-30T12:11:43.059Z,63.93
2022-09-30T12:12:43.070Z,64.64
2022-09-30T12:13:43.066Z,65.81
2022-09-30T12:14:43.047Z,65.31
2022-09-30T12:15:43.014Z,64.81
2022-09-30T12:16:43.039Z,60.80
2022-09-30T12:17:43.000Z,63.42
2022-09-30T12:18:43.014Z,61.57
2022-09-30T12:19:42.991Z,61.47
2022-09-30T12:20:42.992Z,58.62
2022-09-30T12:21:42.950Z,59.73
2022-09-30T12:22:42.938Z,60.61
2022-09-30T12:23:42.943Z,60.10
2022-09-30T12:24:42.965Z,58.97
2022-09-30T12:25:42.912Z,57.25
2022-09-30T12:26:42.931Z,56.95
2022-09-30T12:27:42.968Z,58.76
2022-09-30T12:28:42.887Z,57.35
2022-09-30T12:29:42.889Z,58.97
2022-09-30T12:30:42.873Z,61.29
2022-09-30T12:31:42.942Z,61.76
2022-09-30T12:32:42.876Z,58.36
2022-09-30T12:33:42.859Z,58.97
2022-09-30T12:34:42.823Z,59.44
2022-09-30T12:35:42.803Z,57.83
2022-09-30T12:36:42.788Z,57.25
2022-09-30T12:37:42.800Z,57.35
2022-09-30T12:38:42.826Z,58.56
2022-09-30T12:39:42.777Z,59.27
2022-09-30T12:40:42.794Z,59.40
2022-09-30T12:41:42.785Z,58.19
2022-09-30T12:42:42.727Z,57.38
2022-09-30T12:43:42.740Z,56.77
2022-09-30T12:44:42.701Z,57.78
2022-09-30T12:45:42.788Z,59.40
2022-09-30T12:46:42.700Z,59.90
2022-09-30T12:47:42.735Z,55.54
2022-09-30T12:48:42.663Z,56.55
2022-09-30T12:49:42.673Z,57.78
2022-09-30T12:50:42.658Z,57.35
2022-09-30T12:51:42.634Z,60.48
2022-09-30T12:52:42.655Z,59.04
2022-09-30T12:53:42.604Z,57.32
2022-09-30T12:54:42.648Z,57.73
2022-09-30T12:55:42.581Z,56.72
2022-09-30T12:56:42.569Z,57.23
2022-09-30T12:57:42.559Z,57.63
2022-09-30T12:58:42.564Z,57.43
2022-09-30T12:59:42.543Z,56.32
2022-09-30T13:00:42.736Z,56.82
2022-09-30T13:01:42.539Z,57.93
2022-09-30T13:02:42.650Z,58.94
2022-09-30T13:03:42.501Z,58.64
2022-09-30T13:04:42.511Z,57.43
2022-09-30T13:05:42.476Z,57.05
2022-09-30T13:06:42.522Z,58.44
2022-09-30T13:07:42.457Z,57.93
2022-09-30T13:08:42.448Z,58.56
2022-09-30T13:09:42.445Z,60.48
2022-09-30T13:10:42.459Z,61.01
2022-09-30T13:11:42.456Z,61.41
2022-09-30T13:12:42.433Z,61.44
2022-09-30T13:13:42.401Z,62.65
2022-09-30T13:14:42.433Z,62.59
2022-09-30T13:15:42.386Z,62.79
2022-09-30T13:16:42.432Z,62.88
2022-09-30T13:17:42.395Z,64.20
2022-09-30T13:18:42.368Z,64.50
2022-09-30T13:19:42.347Z,64.50
2022-09-30T13:20:42.328Z,64.13
2022-09-30T13:21:42.304Z,63.59
2022-09-30T13:22:42.292Z,64.30
2022-09-30T13:23:42.309Z,65.11
2022-09-30T13:24:46.235Z,64.30
2022-09-30T13:25:42.257Z,63.90
2022-09-30T13:26:42.258Z,63.19
2022-09-30T13:27:42.330Z,63.42
2022-09-30T13:28:42.230Z,64.03
2022-09-30T13:29:42.226Z,63.62
2022-09-30T13:30:42.228Z,64.84
2022-09-30T13:31:42.695Z,64.73
2022-09-30T13:32:42.212Z,64.13
2022-09-30T13:33:42.186Z,64.64
2022-09-30T13:34:42.188Z,64.84
2022-09-30T13:35:42.156Z,63.73
2022-09-30T13:36:42.161Z,63.62
2022-09-30T13:37:43.118Z,63.42
2022-09-30T13:38:42.159Z,65.75
2022-09-30T13:39:42.149Z,64.33
2022-09-30T13:41:00.867Z,64.84
2022-09-30T13:41:43.090Z,65.11
2022-09-30T13:42:42.071Z,65.11
2022-09-30T13:43:42.061Z,65.61
2022-09-30T13:44:42.056Z,65.01
2022-09-30T13:45:42.113Z,64.10
2022-09-30T13:46:42.030Z,64.40
2022-09-30T13:47:42.024Z,65.04
2022-09-30T13:48:42.009Z,63.22
2022-09-30T13:49:42.027Z,62.92
2022-09-30T13:50:42.017Z,63.12
2022-09-30T13:51:41.978Z,63.93
2022-09-30T13:52:41.981Z,64.53
2022-09-30T13:53:41.974Z,63.90
2022-09-30T13:54:41.948Z,63.49
2022-09-30T13:55:41.951Z,63.79
2022-09-30T13:56:41.971Z,63.19
2022-09-30T13:57:41.913Z,62.88
2022-09-30T13:58:41.907Z,64.10
2022-09-30T13:59:41.915Z,63.09
2022-09-30T14:00:41.934Z,65.21
2022-09-30T14:01:41.868Z,64.30
2022-09-30T14:02:41.863Z,62.79
2022-09-30T14:03:41.928Z,63.19
2022-09-30T14:04:41.835Z,62.48
2022-09-30T14:05:41.818Z,61.57
2022-09-30T14:06:41.894Z,61.47
2022-09-30T14:07:41.809Z,60.36
2022-09-30T14:08:42.563Z,62.18
2022-09-30T14:09:41.781Z,61.47
2022-09-30T14:10:41.771Z,61.27
2022-09-30T14:11:41.765Z,62.88
2022-09-30T14:12:41.767Z,62.38
2022-09-30T14:13:41.738Z,62.18
2022-09-30T14:14:42.124Z,60.60
2022-09-30T14:15:41.776Z,62.08
2022-09-30T14:16:41.719Z,61.07
2022-09-30T14:17:41.709Z,61.88
2022-09-30T14:18:41.684Z,63.22
2022-09-30T14:19:41.664Z,63.22
2022-09-30T14:20:41.651Z,63.22
2022-09-30T14:21:41.657Z,63.22
2022-09-30T14:22:41.682Z,63.93
2022-09-30T14:23:41.654Z,64.53
2022-09-30T14:24:41.621Z,63.32
2022-09-30T14:25:41.603Z,64.84
2022-09-30T14:26:41.613Z,64.33
2022-09-30T14:27:41.699Z,64.33
2022-09-30T14:28:41.585Z,64.33
2022-09-30T14:29:41.572Z,63.93
2022-09-30T14:30:41.548Z,65.04
2022-09-30T14:31:41.607Z,64.73
2022-09-30T14:32:41.540Z,64.23
2022-09-30T14:33:41.514Z,62.88
2022-09-30T14:34:41.514Z,62.71
2022-09-30T14:35:41.620Z,63.12
2022-09-30T14:36:41.490Z,63.29
2022-09-30T14:37:41.474Z,63.42
2022-09-30T14:38:41.472Z,63.73
2022-09-30T14:39:41.442Z,64.43
2022-09-30T14:40:41.444Z,64.23
2022-09-30T14:41:41.457Z,64.43
2022-09-30T14:42:41.424Z,65.75
2022-09-30T14:43:42.968Z,63.42
2022-09-30T14:44:41.389Z,59.08
2022-09-30T14:45:41.417Z,59.78
2022-09-30T14:46:41.383Z,60.80
2022-09-30T14:47:41.382Z,62.11
2022-09-30T14:48:41.367Z,62.41
2022-09-30T14:49:41.349Z,62.71
2022-09-30T14:50:41.327Z,63.02
2022-09-30T14:51:41.357Z,63.02
2022-09-30T14:52:41.339Z,63.22
2022-09-30T14:53:41.295Z,62.92
2022-09-30T14:54:41.300Z,65.95
2022-09-30T14:55:41.290Z,66.05
2022-09-30T14:56:41.262Z,64.56
2022-09-30T14:57:41.252Z,61.83
2022-09-30T14:58:41.252Z,59.03
2022-09-30T14:59:43.923Z,60.52
2022-09-30T15:00:41.296Z,60.85
2022-09-30T15:01:41.216Z,62.37
2022-09-30T15:02:41.199Z,62.57
2022-09-30T15:03:41.237Z,60.25
2022-09-30T15:04:41.237Z,59.54
2022-09-30T15:05:41.163Z,59.84
2022-09-30T15:06:41.153Z,59.54
2022-09-30T15:07:41.150Z,58.83
2022-09-30T15:08:41.154Z,62.16
2022-09-30T15:09:41.138Z,61.56
2022-09-30T15:10:41.135Z,60.96
2022-09-30T15:11:41.115Z,62.87
2022-09-30T15:12:41.108Z,62.27
2022-09-30T15:13:41.090Z,62.16
2022-09-30T15:14:41.063Z,62.87
2022-09-30T15:15:41.091Z,64.22
2022-09-30T15:16:41.198Z,63.51
2022-09-30T15:17:41.047Z,65.84
2022-09-30T15:18:41.038Z,62.60
2022-09-30T15:19:41.033Z,61.59
2022-09-30T15:20:41.015Z,61.79
2022-09-30T15:21:40.995Z,61.72
2022-09-30T15:22:40.988Z,61.52
2022-09-30T15:23:40.984Z,60.41
2022-09-30T15:24:40.980Z,61.32
2022-09-30T15:25:40.951Z,62.43
2022-09-30T15:26:40.957Z,61.32
2022-09-30T15:27:40.929Z,59.16
2022-09-30T15:28:40.971Z,59.80
2022-09-30T15:29:40.923Z,57.75
2022-09-30T15:30:40.898Z,60.58
2022-09-30T15:31:40.945Z,58.96
2022-09-30T15:33:40.882Z,60.07
2022-09-30T15:34:40.853Z,60.78
2022-09-30T15:35:40.850Z,62.81
2022-09-30T15:36:40.852Z,64.86
2022-09-30T15:37:40.825Z,67.08
2022-09-30T15:38:40.832Z,69.31
2022-09-30T15:39:45.238Z,69.21
2022-09-30T15:40:41.800Z,68.63
2022-09-30T15:41:40.783Z,67.62
2022-09-30T15:42:40.818Z,64.72
2022-09-30T15:43:40.757Z,64.92
2022-09-30T15:44:40.749Z,66.44
2022-09-30T15:45:40.807Z,67.35
2022-09-30T15:46:40.861Z,66.94
2022-09-30T15:47:40.717Z,65.32
2022-09-30T15:48:40.747Z,67.68
2022-09-30T15:49:40.709Z,69.07
2022-09-30T15:50:40.696Z,69.27
2022-09-30T15:51:40.686Z,68.29
2022-09-30T15:52:40.660Z,69.51
2022-09-30T15:53:40.657Z,69.54
2022-09-30T15:54:40.655Z,69.03
2022-09-30T15:55:40.629Z,68.93
2022-09-30T15:56:40.674Z,70.05
2022-09-30T15:57:40.644Z,71.77
2022-09-30T15:58:40.621Z,73.09
2022-09-30T15:59:40.602Z,72.82
2022-09-30T16:00:40.597Z,74.24
2022-09-30T16:01:40.570Z,72.11
2022-09-30T16:02:40.613Z,73.43
2022-09-30T16:03:40.562Z,72.04
2022-09-30T16:04:40.533Z,71.13
2022-09-30T16:05:40.517Z,71.13
2022-09-30T16:06:40.521Z,67.88
2022-09-30T16:07:40.492Z,69.40
2022-09-30T16:08:40.493Z,68.70
2022-09-30T16:09:40.474Z,69.60
2022-09-30T16:10:40.470Z,68.70
2022-09-30T16:11:40.475Z,69.10
2022-09-30T16:12:40.479Z,69.71
2022-09-30T16:13:40.425Z,69.51
2022-09-30T16:14:40.464Z,71.64
2022-09-30T16:15:40.430Z,70.62
2022-09-30T16:16:40.450Z,70.79
2022-09-30T16:17:40.409Z,72.61
2022-09-30T16:18:40.409Z,72.34
2022-09-30T16:19:40.373Z,71.03
2022-09-30T16:20:40.356Z,73.06
2022-09-30T16:21:40.349Z,73.26
2022-09-30T16:22:40.352Z,74.48
2022-09-30T16:23:40.324Z,74.38
2022-09-30T16:24:40.307Z,75.19
2022-09-30T16:25:40.297Z,74.38
2022-09-30T16:26:40.320Z,75.70
2022-09-30T16:27:40.300Z,76.95
2022-09-30T16:28:40.286Z,75.52
2022-09-30T16:29:40.257Z,72.62
2022-09-30T16:30:40.277Z,72.99
2022-09-30T16:31:40.378Z,73.74
2022-09-30T16:32:40.241Z,75.63
2022-09-30T16:33:40.242Z,76.17
2022-09-30T16:34:40.205Z,77.19
2022-09-30T16:35:40.219Z,77.09
2022-09-30T16:36:40.178Z,76.98
2022-09-30T16:37:40.193Z,77.70
2022-09-30T16:38:40.212Z,77.90
2022-09-30T16:39:40.161Z,78.00
2022-09-30T16:40:40.150Z,78.64
2022-09-30T16:41:40.142Z,78.75
2022-09-30T16:42:40.118Z,78.24
2022-09-30T16:43:40.134Z,79.05
2022-09-30T16:44:40.147Z,78.34
2022-09-30T16:45:40.304Z,77.83
2022-09-30T16:46:40.092Z,77.43
2022-09-30T16:47:40.076Z,76.95
2022-09-30T16:48:40.057Z,78.08
2022-09-30T16:49:40.046Z,78.85
2022-09-30T16:50:40.081Z,79.09
2022-09-30T16:51:40.026Z,79.60
2022-09-30T16:52:40.025Z,79.39
2022-09-30T16:53:40.007Z,79.70
2022-09-30T16:54:39.991Z,78.08
2022-09-30T16:55:39.987Z,79.43
2022-09-30T16:56:39.991Z,80.15
2022-09-30T16:57:39.959Z,79.63
2022-09-30T16:58:39.952Z,78.92
2022-09-30T16:59:39.951Z,80.04
2022-09-30T17:00:39.994Z,79.94
2022-09-30T17:01:39.939Z,79.98
2022-09-30T17:02:39.922Z,79.88
2022-09-30T17:03:39.946Z,80.38
2022-09-30T17:04:39.887Z,80.59
2022-09-30T17:05:39.883Z,80.79
2022-09-30T17:06:39.867Z,80.90
2022-09-30T17:07:39.857Z,80.69
2022-09-30T17:08:39.877Z,80.99
2022-09-30T17:09:39.839Z,80.83
2022-09-30T17:10:39.857Z,80.83
2022-09-30T17:11:39.806Z,81.24
2022-09-30T17:12:39.808Z,81.27
2022-09-30T17:13:39.780Z,81.27
2022-09-30T17:14:39.769Z,81.58
2022-09-30T17:15:39.797Z,80.46
2022-09-30T17:16:39.795Z,77.81
2022-09-30T17:17:39.737Z,75.98
2022-09-30T17:18:39.761Z,76.59
2022-09-30T17:19:39.718Z,77.30
2022-09-30T17:20:39.711Z,75.88
2022-09-30T17:21:39.695Z,77.20
2022-09-30T17:22:39.686Z,77.51
2022-09-30T17:23:39.676Z,75.33
2022-09-30T17:24:39.690Z,74.93
2022-09-30T17:25:39.656Z,76.08